sensor_id;sensor_type;location;lat;lon;timestamp;temperature;humidity
33943;DHT22;66763;47.856;17.462;2024-02-04T00:00:17;11.90;49.60
33943;DHT22;66763;47.856;17.462;2024-02-04T00:02:43;11.90;49.50
33943;DHT22;66763;47.856;17.462;2024-02-04T00:05:09;11.90;49.50
33943;DHT22;66763;47.856;17.462;2024-02-04T00:07:34;11.90;49.50
33943;DHT22;66763;47.856;17.462;2024-02-04T00:10:00;11.90;49.50
33943;DHT22;66763;47.856;17.462;2024-02-04T00:12:25;11.90;49.50
33943;DHT22;66763;47.856;17.462;2024-02-04T00:14:52;11.90;49.50
33943;DHT22;66763;47.856;17.462;2024-02-04T00:17:17;11.90;49.50
33943;DHT22;66763;47.856;17.462;2024-02-04T00:19:43;11.90;49.50
33943;DHT22;66763;47.856;17.462;2024-02-04T00:22:08;11.90;49.40
33943;DHT22;66763;47.856;17.462;2024-02-04T00:24:34;11.90;49.50
33943;DHT22;66763;47.856;17.462;2024-02-04T00:26:59;11.90;49.50
33943;DHT22;66763;47.856;17.462;2024-02-04T00:29:25;11.90;49.50
33943;DHT22;66763;47.856;17.462;2024-02-04T00:31:50;11.90;49.40
33943;DHT22;66763;47.856;17.462;2024-02-04T00:34:16;11.90;49.50
33943;DHT22;66763;47.856;17.462;2024-02-04T00:36:41;11.90;49.50
33943;DHT22;66763;47.856;17.462;2024-02-04T00:39:07;11.90;49.50
33943;DHT22;66763;47.856;17.462;2024-02-04T00:41:33;11.80;49.40
33943;DHT22;66763;47.856;17.462;2024-02-04T00:43:59;11.80;49.40
33943;DHT22;66763;47.856;17.462;2024-02-04T00:46:24;11.90;49.50
33943;DHT22;66763;47.856;17.462;2024-02-04T00:48:50;11.90;49.50
33943;DHT22;66763;47.856;17.462;2024-02-04T00:51:15;11.90;49.40
33943;DHT22;66763;47.856;17.462;2024-02-04T00:53:42;11.80;49.40
33943;DHT22;66763;47.856;17.462;2024-02-04T00:56:08;11.90;49.50
33943;DHT22;66763;47.856;17.462;2024-02-04T00:58:35;11.90;49.50
33943;DHT22;66763;47.856;17.462;2024-02-04T01:01:00;11.80;49.40
33943;DHT22;66763;47.856;17.462;2024-02-04T01:03:26;11.80;49.40
33943;DHT22;66763;47.856;17.462;2024-02-04T01:05:51;11.90;49.40
33943;DHT22;66763;47.856;17.462;2024-02-04T01:08:17;11.80;49.40
33943;DHT22;66763;47.856;17.462;2024-02-04T01:10:42;11.90;49.50
33943;DHT22;66763;47.856;17.462;2024-02-04T01:13:07;11.90;49.50
33943;DHT22;66763;47.856;17.462;2024-02-04T01:15:33;11.90;49.50
33943;DHT22;66763;47.856;17.462;2024-02-04T01:17:58;11.90;49.50
33943;DHT22;66763;47.856;17.462;2024-02-04T01:20:24;11.80;49.40
33943;DHT22;66763;47.856;17.462;2024-02-04T01:22:49;11.80;49.40
33943;DHT22;66763;47.856;17.462;2024-02-04T01:25:15;11.80;49.40
33943;DHT22;66763;47.856;17.462;2024-02-04T01:27:40;11.90;49.50
33943;DHT22;66763;47.856;17.462;2024-02-04T01:30:06;11.80;49.40
33943;DHT22;66763;47.856;17.462;2024-02-04T01:32:31;11.80;49.40
33943;DHT22;66763;47.856;17.462;2024-02-04T01:34:57;11.80;49.40
33943;DHT22;66763;47.856;17.462;2024-02-04T01:37:22;11.80;49.50
33943;DHT22;66763;47.856;17.462;2024-02-04T01:39:48;11.80;49.40
33943;DHT22;66763;47.856;17.462;2024-02-04T01:42:14;11.80;49.50
33943;DHT22;66763;47.856;17.462;2024-02-04T01:44:39;11.80;49.40
33943;DHT22;66763;47.856;17.462;2024-02-04T01:47:05;11.80;49.40
33943;DHT22;66763;47.856;17.462;2024-02-04T01:49:30;11.80;49.40
33943;DHT22;66763;47.856;17.462;2024-02-04T01:51:56;11.80;49.40
33943;DHT22;66763;47.856;17.462;2024-02-04T01:54:22;11.80;49.50
33943;DHT22;66763;47.856;17.462;2024-02-04T01:56:49;11.80;49.40
33943;DHT22;66763;47.856;17.462;2024-02-04T01:59:14;11.80;49.40
33943;DHT22;66763;47.856;17.462;2024-02-04T02:01:40;11.80;49.40
33943;DHT22;66763;47.856;17.462;2024-02-04T02:04:06;11.80;49.40
33943;DHT22;66763;47.856;17.462;2024-02-04T02:06:32;11.80;49.50
33943;DHT22;66763;47.856;17.462;2024-02-04T02:08:58;11.80;49.60
33943;DHT22;66763;47.856;17.462;2024-02-04T02:11:35;11.80;49.50
33943;DHT22;66763;47.856;17.462;2024-02-04T02:14:03;11.80;49.50
33943;DHT22;66763;47.856;17.462;2024-02-04T02:16:32;11.80;49.40
33943;DHT22;66763;47.856;17.462;2024-02-04T02:19:03;11.80;49.50
33943;DHT22;66763;47.856;17.462;2024-02-04T02:21:52;11.70;49.40
33943;DHT22;66763;47.856;17.462;2024-02-04T02:26:47;11.80;49.40
33943;DHT22;66763;47.856;17.462;2024-02-04T02:29:13;11.80;49.40
33943;DHT22;66763;47.856;17.462;2024-02-04T02:31:38;11.80;49.40
33943;DHT22;66763;47.856;17.462;2024-02-04T02:34:05;11.80;49.40
33943;DHT22;66763;47.856;17.462;2024-02-04T02:36:34;11.80;49.40
33943;DHT22;66763;47.856;17.462;2024-02-04T02:39:08;11.80;49.40
33943;DHT22;66763;47.856;17.462;2024-02-04T02:41:35;11.70;49.40
33943;DHT22;66763;47.856;17.462;2024-02-04T02:44:01;11.80;49.40
33943;DHT22;66763;47.856;17.462;2024-02-04T02:46:28;11.80;49.40
33943;DHT22;66763;47.856;17.462;2024-02-04T02:48:53;11.80;49.40
33943;DHT22;66763;47.856;17.462;2024-02-04T02:51:19;11.80;49.40
33943;DHT22;66763;47.856;17.462;2024-02-04T02:53:45;11.80;49.40
33943;DHT22;66763;47.856;17.462;2024-02-04T02:56:10;11.80;49.40
33943;DHT22;66763;47.856;17.462;2024-02-04T02:58:36;11.80;49.40
33943;DHT22;66763;47.856;17.462;2024-02-04T03:01:01;11.80;49.40
33943;DHT22;66763;47.856;17.462;2024-02-04T03:03:27;11.80;49.40
33943;DHT22;66763;47.856;17.462;2024-02-04T03:05:52;11.80;49.40
33943;DHT22;66763;47.856;17.462;2024-02-04T03:08:18;11.80;49.40
33943;DHT22;66763;47.856;17.462;2024-02-04T03:10:44;11.80;49.40
33943;DHT22;66763;47.856;17.462;2024-02-04T03:13:09;11.80;49.40
33943;DHT22;66763;47.856;17.462;2024-02-04T03:15:34;11.70;49.40
33943;DHT22;66763;47.856;17.462;2024-02-04T03:18:00;11.80;49.40
33943;DHT22;66763;47.856;17.462;2024-02-04T03:20:25;11.80;49.40
33943;DHT22;66763;47.856;17.462;2024-02-04T03:22:51;11.80;49.40
33943;DHT22;66763;47.856;17.462;2024-02-04T03:25:16;11.80;49.40
33943;DHT22;66763;47.856;17.462;2024-02-04T03:27:42;11.80;49.40
33943;DHT22;66763;47.856;17.462;2024-02-04T03:30:07;11.80;49.40
33943;DHT22;66763;47.856;17.462;2024-02-04T03:32:33;11.80;49.40
33943;DHT22;66763;47.856;17.462;2024-02-04T03:35:01;11.80;49.40
33943;DHT22;66763;47.856;17.462;2024-02-04T03:37:27;11.80;49.40
33943;DHT22;66763;47.856;17.462;2024-02-04T03:39:53;11.80;49.50
33943;DHT22;66763;47.856;17.462;2024-02-04T03:42:18;11.80;49.40
33943;DHT22;66763;47.856;17.462;2024-02-04T03:44:46;11.80;49.40
33943;DHT22;66763;47.856;17.462;2024-02-04T03:47:11;11.80;49.50
33943;DHT22;66763;47.856;17.462;2024-02-04T03:49:37;11.80;49.40
33943;DHT22;66763;47.856;17.462;2024-02-04T03:52:03;11.80;49.40
33943;DHT22;66763;47.856;17.462;2024-02-04T03:54:28;11.80;49.40
33943;DHT22;66763;47.856;17.462;2024-02-04T03:56:54;11.80;49.40
33943;DHT22;66763;47.856;17.462;2024-02-04T03:59:19;11.70;49.40
33943;DHT22;66763;47.856;17.462;2024-02-04T04:01:48;11.80;49.40
33943;DHT22;66763;47.856;17.462;2024-02-04T04:04:14;11.80;49.50
33943;DHT22;66763;47.856;17.462;2024-02-04T04:06:40;11.80;49.40
33943;DHT22;66763;47.856;17.462;2024-02-04T04:09:05;11.70;49.40
33943;DHT22;66763;47.856;17.462;2024-02-04T04:11:31;11.80;49.50
33943;DHT22;66763;47.856;17.462;2024-02-04T04:13:56;11.80;49.50
33943;DHT22;66763;47.856;17.462;2024-02-04T04:16:22;11.80;49.50
33943;DHT22;66763;47.856;17.462;2024-02-04T04:18:48;11.80;49.50
33943;DHT22;66763;47.856;17.462;2024-02-04T04:21:13;11.70;49.40
33943;DHT22;66763;47.856;17.462;2024-02-04T04:23:39;11.80;49.50
33943;DHT22;66763;47.856;17.462;2024-02-04T04:26:04;11.80;49.50
33943;DHT22;66763;47.856;17.462;2024-02-04T04:28:30;11.70;49.40
33943;DHT22;66763;47.856;17.462;2024-02-04T04:30:56;11.80;49.50
33943;DHT22;66763;47.856;17.462;2024-02-04T04:33:22;11.70;49.50
33943;DHT22;66763;47.856;17.462;2024-02-04T04:35:47;11.70;49.50
33943;DHT22;66763;47.856;17.462;2024-02-04T04:38:12;11.70;49.40
33943;DHT22;66763;47.856;17.462;2024-02-04T04:40:38;11.70;49.40
33943;DHT22;66763;47.856;17.462;2024-02-04T04:43:06;11.80;49.50
33943;DHT22;66763;47.856;17.462;2024-02-04T04:45:31;11.80;49.50
33943;DHT22;66763;47.856;17.462;2024-02-04T04:47:57;11.70;49.50
33943;DHT22;66763;47.856;17.462;2024-02-04T04:50:22;11.70;49.50
33943;DHT22;66763;47.856;17.462;2024-02-04T04:52:48;11.70;49.50
33943;DHT22;66763;47.856;17.462;2024-02-04T04:55:14;11.70;49.50
33943;DHT22;66763;47.856;17.462;2024-02-04T04:57:39;11.70;49.50
33943;DHT22;66763;47.856;17.462;2024-02-04T05:00:05;11.80;49.60
33943;DHT22;66763;47.856;17.462;2024-02-04T05:02:39;11.70;49.50
33943;DHT22;66763;47.856;17.462;2024-02-04T05:05:05;11.70;49.50
33943;DHT22;66763;47.856;17.462;2024-02-04T05:07:31;11.80;49.60
33943;DHT22;66763;47.856;17.462;2024-02-04T05:09:56;11.70;49.50
33943;DHT22;66763;47.856;17.462;2024-02-04T05:12:21;11.70;49.50
33943;DHT22;66763;47.856;17.462;2024-02-04T05:14:47;11.70;49.50
33943;DHT22;66763;47.856;17.462;2024-02-04T05:17:12;11.70;50.10
33943;DHT22;66763;47.856;17.462;2024-02-04T05:19:40;11.70;49.50
33943;DHT22;66763;47.856;17.462;2024-02-04T05:22:05;11.70;49.50
33943;DHT22;66763;47.856;17.462;2024-02-04T05:24:31;11.70;49.50
33943;DHT22;66763;47.856;17.462;2024-02-04T05:26:56;11.70;49.60
33943;DHT22;66763;47.856;17.462;2024-02-04T05:29:22;11.70;49.50
33943;DHT22;66763;47.856;17.462;2024-02-04T05:31:47;11.70;49.60
33943;DHT22;66763;47.856;17.462;2024-02-04T05:34:13;11.70;49.60
33943;DHT22;66763;47.856;17.462;2024-02-04T05:36:38;11.70;49.60
33943;DHT22;66763;47.856;17.462;2024-02-04T05:39:14;11.80;49.60
33943;DHT22;66763;47.856;17.462;2024-02-04T05:41:41;11.80;49.60
33943;DHT22;66763;47.856;17.462;2024-02-04T05:44:06;11.80;49.60
33943;DHT22;66763;47.856;17.462;2024-02-04T05:46:37;11.70;49.60
33943;DHT22;66763;47.856;17.462;2024-02-04T05:49:02;11.70;49.60
33943;DHT22;66763;47.856;17.462;2024-02-04T05:51:28;11.70;49.60
33943;DHT22;66763;47.856;17.462;2024-02-04T05:53:54;11.70;49.60
33943;DHT22;66763;47.856;17.462;2024-02-04T05:56:19;11.70;49.60
33943;DHT22;66763;47.856;17.462;2024-02-04T05:58:46;11.70;49.60
33943;DHT22;66763;47.856;17.462;2024-02-04T06:01:11;11.70;49.60
33943;DHT22;66763;47.856;17.462;2024-02-04T06:03:36;11.70;49.60
33943;DHT22;66763;47.856;17.462;2024-02-04T06:06:02;11.70;49.60
33943;DHT22;66763;47.856;17.462;2024-02-04T06:08:27;11.70;49.60
33943;DHT22;66763;47.856;17.462;2024-02-04T06:10:53;11.70;49.60
33943;DHT22;66763;47.856;17.462;2024-02-04T06:13:18;11.70;49.60
33943;DHT22;66763;47.856;17.462;2024-02-04T06:15:44;11.70;49.60
33943;DHT22;66763;47.856;17.462;2024-02-04T06:18:09;11.70;49.60
33943;DHT22;66763;47.856;17.462;2024-02-04T06:20:35;11.70;49.60
33943;DHT22;66763;47.856;17.462;2024-02-04T06:23:00;11.70;49.60
33943;DHT22;66763;47.856;17.462;2024-02-04T06:25:26;11.70;49.60
33943;DHT22;66763;47.856;17.462;2024-02-04T06:27:51;11.70;49.60
33943;DHT22;66763;47.856;17.462;2024-02-04T06:30:17;11.70;49.60
33943;DHT22;66763;47.856;17.462;2024-02-04T06:32:42;11.70;49.60
33943;DHT22;66763;47.856;17.462;2024-02-04T06:35:08;11.70;49.60
33943;DHT22;66763;47.856;17.462;2024-02-04T06:37:33;11.70;49.60
33943;DHT22;66763;47.856;17.462;2024-02-04T06:39:59;11.70;49.60
33943;DHT22;66763;47.856;17.462;2024-02-04T06:42:24;11.70;49.60
33943;DHT22;66763;47.856;17.462;2024-02-04T06:44:50;11.70;49.60
33943;DHT22;66763;47.856;17.462;2024-02-04T06:47:15;11.70;49.60
33943;DHT22;66763;47.856;17.462;2024-02-04T06:49:43;11.70;49.60
33943;DHT22;66763;47.856;17.462;2024-02-04T06:52:09;11.70;49.70
33943;DHT22;66763;47.856;17.462;2024-02-04T06:54:34;11.70;49.60
33943;DHT22;66763;47.856;17.462;2024-02-04T06:57:00;11.70;49.60
33943;DHT22;66763;47.856;17.462;2024-02-04T06:59:25;11.70;49.60
33943;DHT22;66763;47.856;17.462;2024-02-04T07:01:50;11.70;49.60
33943;DHT22;66763;47.856;17.462;2024-02-04T07:04:18;11.70;50.20
33943;DHT22;66763;47.856;17.462;2024-02-04T07:06:44;11.70;49.60
33943;DHT22;66763;47.856;17.462;2024-02-04T07:09:09;11.70;49.60
33943;DHT22;66763;47.856;17.462;2024-02-04T07:11:35;11.70;49.60
33943;DHT22;66763;47.856;17.462;2024-02-04T07:14:00;11.70;49.60
33943;DHT22;66763;47.856;17.462;2024-02-04T07:16:26;11.70;49.70
33943;DHT22;66763;47.856;17.462;2024-02-04T07:18:51;11.70;49.60
33943;DHT22;66763;47.856;17.462;2024-02-04T07:21:17;11.70;49.60
33943;DHT22;66763;47.856;17.462;2024-02-04T07:23:42;11.70;49.60
33943;DHT22;66763;47.856;17.462;2024-02-04T07:26:08;11.70;49.60
33943;DHT22;66763;47.856;17.462;2024-02-04T07:28:34;11.70;49.60
33943;DHT22;66763;47.856;17.462;2024-02-04T07:30:59;11.70;49.70
33943;DHT22;66763;47.856;17.462;2024-02-04T07:33:24;11.70;49.70
33943;DHT22;66763;47.856;17.462;2024-02-04T07:35:50;11.70;49.70
33943;DHT22;66763;47.856;17.462;2024-02-04T07:38:15;11.70;49.70
33943;DHT22;66763;47.856;17.462;2024-02-04T07:40:41;11.70;49.70
33943;DHT22;66763;47.856;17.462;2024-02-04T07:43:06;11.70;49.70
33943;DHT22;66763;47.856;17.462;2024-02-04T07:45:33;11.70;49.70
33943;DHT22;66763;47.856;17.462;2024-02-04T07:47:59;11.70;49.70
33943;DHT22;66763;47.856;17.462;2024-02-04T07:50:24;11.70;49.70
33943;DHT22;66763;47.856;17.462;2024-02-04T07:52:51;11.70;49.70
33943;DHT22;66763;47.856;17.462;2024-02-04T07:55:16;11.70;49.70
33943;DHT22;66763;47.856;17.462;2024-02-04T07:57:42;11.70;49.70
33943;DHT22;66763;47.856;17.462;2024-02-04T08:00:07;11.70;49.70
33943;DHT22;66763;47.856;17.462;2024-02-04T08:02:35;11.70;49.70
33943;DHT22;66763;47.856;17.462;2024-02-04T08:05:01;11.70;49.70
33943;DHT22;66763;47.856;17.462;2024-02-04T08:07:27;11.70;49.70
33943;DHT22;66763;47.856;17.462;2024-02-04T08:09:52;11.70;49.70
33943;DHT22;66763;47.856;17.462;2024-02-04T08:12:18;11.70;49.70
33943;DHT22;66763;47.856;17.462;2024-02-04T08:14:43;11.70;49.70
33943;DHT22;66763;47.856;17.462;2024-02-04T08:17:09;11.70;49.70
33943;DHT22;66763;47.856;17.462;2024-02-04T08:19:34;11.70;49.70
33943;DHT22;66763;47.856;17.462;2024-02-04T08:22:00;11.70;49.70
33943;DHT22;66763;47.856;17.462;2024-02-04T08:24:26;11.70;49.70
33943;DHT22;66763;47.856;17.462;2024-02-04T08:26:51;11.70;49.70
33943;DHT22;66763;47.856;17.462;2024-02-04T08:29:16;11.70;49.70
33943;DHT22;66763;47.856;17.462;2024-02-04T08:31:42;11.60;49.60
33943;DHT22;66763;47.856;17.462;2024-02-04T08:34:07;11.70;49.70
33943;DHT22;66763;47.856;17.462;2024-02-04T08:36:33;11.70;49.70
33943;DHT22;66763;47.856;17.462;2024-02-04T08:38:58;11.70;49.70
33943;DHT22;66763;47.856;17.462;2024-02-04T08:41:24;11.70;49.70
33943;DHT22;66763;47.856;17.462;2024-02-04T08:43:49;11.70;49.70
33943;DHT22;66763;47.856;17.462;2024-02-04T08:46:15;11.70;49.70
33943;DHT22;66763;47.856;17.462;2024-02-04T08:48:41;11.70;49.70
33943;DHT22;66763;47.856;17.462;2024-02-04T08:51:11;11.60;49.60
33943;DHT22;66763;47.856;17.462;2024-02-04T08:53:37;11.70;49.70
33943;DHT22;66763;47.856;17.462;2024-02-04T08:56:03;11.70;49.70
33943;DHT22;66763;47.856;17.462;2024-02-04T08:58:29;11.70;49.70
33943;DHT22;66763;47.856;17.462;2024-02-04T09:00:54;11.70;49.70
33943;DHT22;66763;47.856;17.462;2024-02-04T09:03:20;11.70;49.70
33943;DHT22;66763;47.856;17.462;2024-02-04T09:05:45;11.70;49.70
33943;DHT22;66763;47.856;17.462;2024-02-04T09:08:11;11.70;49.80
33943;DHT22;66763;47.856;17.462;2024-02-04T09:10:36;11.60;49.70
33943;DHT22;66763;47.856;17.462;2024-02-04T09:13:02;11.60;49.70
33943;DHT22;66763;47.856;17.462;2024-02-04T09:15:28;11.70;49.80
33943;DHT22;66763;47.856;17.462;2024-02-04T09:17:53;11.70;49.80
33943;DHT22;66763;47.856;17.462;2024-02-04T09:20:19;11.70;49.80
33943;DHT22;66763;47.856;17.462;2024-02-04T09:22:44;11.70;49.80
33943;DHT22;66763;47.856;17.462;2024-02-04T09:25:10;11.70;49.80
33943;DHT22;66763;47.856;17.462;2024-02-04T09:27:35;11.70;49.80
33943;DHT22;66763;47.856;17.462;2024-02-04T09:30:02;11.70;49.80
33943;DHT22;66763;47.856;17.462;2024-02-04T09:32:27;11.70;49.70
33943;DHT22;66763;47.856;17.462;2024-02-04T09:34:53;11.70;49.80
33943;DHT22;66763;47.856;17.462;2024-02-04T09:37:18;11.70;49.80
33943;DHT22;66763;47.856;17.462;2024-02-04T09:39:43;11.70;49.70
33943;DHT22;66763;47.856;17.462;2024-02-04T09:42:09;11.70;49.80
33943;DHT22;66763;47.856;17.462;2024-02-04T09:44:35;11.70;49.80
33943;DHT22;66763;47.856;17.462;2024-02-04T09:47:01;11.70;50.40
33943;DHT22;66763;47.856;17.462;2024-02-04T09:49:27;11.70;49.80
33943;DHT22;66763;47.856;17.462;2024-02-04T09:51:53;11.70;49.70
33943;DHT22;66763;47.856;17.462;2024-02-04T09:54:19;11.70;49.70
33943;DHT22;66763;47.856;17.462;2024-02-04T09:56:45;11.70;49.70
33943;DHT22;66763;47.856;17.462;2024-02-04T09:59:12;11.70;49.70
33943;DHT22;66763;47.856;17.462;2024-02-04T10:01:38;11.70;49.70
33943;DHT22;66763;47.856;17.462;2024-02-04T10:04:04;11.70;49.70
33943;DHT22;66763;47.856;17.462;2024-02-04T10:06:29;11.70;49.70
33943;DHT22;66763;47.856;17.462;2024-02-04T10:08:55;11.70;49.70
33943;DHT22;66763;47.856;17.462;2024-02-04T10:11:20;11.70;49.70
33943;DHT22;66763;47.856;17.462;2024-02-04T10:13:46;11.70;49.80
33943;DHT22;66763;47.856;17.462;2024-02-04T10:16:13;11.70;49.70
33943;DHT22;66763;47.856;17.462;2024-02-04T10:18:45;11.70;49.70
33943;DHT22;66763;47.856;17.462;2024-02-04T10:21:20;11.70;49.70
33943;DHT22;66763;47.856;17.462;2024-02-04T10:23:49;11.70;49.70
33943;DHT22;66763;47.856;17.462;2024-02-04T10:26:15;11.70;49.70
33943;DHT22;66763;47.856;17.462;2024-02-04T10:28:41;11.70;49.70
33943;DHT22;66763;47.856;17.462;2024-02-04T10:31:10;11.70;49.80
33943;DHT22;66763;47.856;17.462;2024-02-04T10:33:36;11.70;49.70
33943;DHT22;66763;47.856;17.462;2024-02-04T10:36:02;11.70;49.70
33943;DHT22;66763;47.856;17.462;2024-02-04T10:38:27;11.70;49.70
33943;DHT22;66763;47.856;17.462;2024-02-04T10:40:53;11.70;49.70
33943;DHT22;66763;47.856;17.462;2024-02-04T10:43:19;11.70;49.70
33943;DHT22;66763;47.856;17.462;2024-02-04T10:45:45;11.70;49.80
33943;DHT22;66763;47.856;17.462;2024-02-04T10:48:11;11.70;49.70
33943;DHT22;66763;47.856;17.462;2024-02-04T10:50:39;11.70;49.70
33943;DHT22;66763;47.856;17.462;2024-02-04T10:53:05;11.70;49.70
33943;DHT22;66763;47.856;17.462;2024-02-04T10:55:32;11.60;49.70
33943;DHT22;66763;47.856;17.462;2024-02-04T10:58:02;11.70;49.70
33943;DHT22;66763;47.856;17.462;2024-02-04T11:00:27;11.70;49.70
33943;DHT22;66763;47.856;17.462;2024-02-04T11:02:53;11.70;49.70
33943;DHT22;66763;47.856;17.462;2024-02-04T11:05:19;11.70;49.70
33943;DHT22;66763;47.856;17.462;2024-02-04T11:07:46;11.60;49.70
33943;DHT22;66763;47.856;17.462;2024-02-04T11:10:12;11.70;49.70
33943;DHT22;66763;47.856;17.462;2024-02-04T11:12:38;11.70;49.70
33943;DHT22;66763;47.856;17.462;2024-02-04T11:15:05;11.70;49.70
33943;DHT22;66763;47.856;17.462;2024-02-04T11:23:30;11.70;49.70
33943;DHT22;66763;47.856;17.462;2024-02-04T11:27:57;11.70;49.80
33943;DHT22;66763;47.856;17.462;2024-02-04T11:30:23;11.70;49.70
33943;DHT22;66763;47.856;17.462;2024-02-04T11:32:49;11.70;49.70
33943;DHT22;66763;47.856;17.462;2024-02-04T11:35:14;11.70;49.70
33943;DHT22;66763;47.856;17.462;2024-02-04T11:37:40;11.70;49.70
33943;DHT22;66763;47.856;17.462;2024-02-04T11:40:20;11.70;49.70
33943;DHT22;66763;47.856;17.462;2024-02-04T11:42:46;11.70;49.70
33943;DHT22;66763;47.856;17.462;2024-02-04T11:45:12;11.70;49.80
33943;DHT22;66763;47.856;17.462;2024-02-04T11:47:38;11.70;49.70
33943;DHT22;66763;47.856;17.462;2024-02-04T11:50:04;11.70;49.70
33943;DHT22;66763;47.856;17.462;2024-02-04T11:52:29;11.70;49.80
33943;DHT22;66763;47.856;17.462;2024-02-04T11:54:55;11.70;50.10
33943;DHT22;66763;47.856;17.462;2024-02-04T11:57:20;11.70;49.90
33943;DHT22;66763;47.856;17.462;2024-02-04T11:59:46;11.70;50.10
33943;DHT22;66763;47.856;17.462;2024-02-04T12:02:12;11.70;49.80
33943;DHT22;66763;47.856;17.462;2024-02-04T12:04:38;11.70;50.20
33943;DHT22;66763;47.856;17.462;2024-02-04T12:07:05;11.70;49.90
33943;DHT22;66763;47.856;17.462;2024-02-04T12:09:30;11.70;49.70
33943;DHT22;66763;47.856;17.462;2024-02-04T12:11:57;11.70;50.10
33943;DHT22;66763;47.856;17.462;2024-02-04T12:14:22;11.70;50.00
33943;DHT22;66763;47.856;17.462;2024-02-04T12:16:48;11.70;49.90
33943;DHT22;66763;47.856;17.462;2024-02-04T12:19:13;11.70;50.10
33943;DHT22;66763;47.856;17.462;2024-02-04T12:21:39;11.70;49.80
33943;DHT22;66763;47.856;17.462;2024-02-04T12:24:05;11.70;50.40
33943;DHT22;66763;47.856;17.462;2024-02-04T12:26:30;11.70;49.80
33943;DHT22;66763;47.856;17.462;2024-02-04T12:28:56;11.70;50.70
33943;DHT22;66763;47.856;17.462;2024-02-04T12:31:25;11.70;50.10
33943;DHT22;66763;47.856;17.462;2024-02-04T12:33:57;11.70;50.40
33943;DHT22;66763;47.856;17.462;2024-02-04T12:36:26;11.70;49.90
33943;DHT22;66763;47.856;17.462;2024-02-04T12:38:52;11.70;50.00
33943;DHT22;66763;47.856;17.462;2024-02-04T12:41:18;11.70;50.20
33943;DHT22;66763;47.856;17.462;2024-02-04T12:43:48;11.70;50.20
33943;DHT22;66763;47.856;17.462;2024-02-04T12:46:14;11.70;49.90
33943;DHT22;66763;47.856;17.462;2024-02-04T12:48:39;11.70;49.70
33943;DHT22;66763;47.856;17.462;2024-02-04T12:51:05;11.70;50.00
33943;DHT22;66763;47.856;17.462;2024-02-04T12:53:31;11.70;50.50
33943;DHT22;66763;47.856;17.462;2024-02-04T12:56:00;11.70;50.00
33943;DHT22;66763;47.856;17.462;2024-02-04T12:58:25;11.70;50.10
33943;DHT22;66763;47.856;17.462;2024-02-04T13:00:59;11.70;50.30
33943;DHT22;66763;47.856;17.462;2024-02-04T13:03:25;11.70;50.50
33943;DHT22;66763;47.856;17.462;2024-02-04T13:05:50;11.70;50.00
33943;DHT22;66763;47.856;17.462;2024-02-04T13:08:18;11.70;49.90
33943;DHT22;66763;47.856;17.462;2024-02-04T13:10:43;11.70;50.50
33943;DHT22;66763;47.856;17.462;2024-02-04T13:13:10;11.70;50.50
33943;DHT22;66763;47.856;17.462;2024-02-04T13:15:39;11.70;50.70
33943;DHT22;66763;47.856;17.462;2024-02-04T13:18:05;11.70;50.10
33943;DHT22;66763;47.856;17.462;2024-02-04T13:20:30;11.70;50.50
33943;DHT22;66763;47.856;17.462;2024-02-04T13:22:56;11.70;50.50
33943;DHT22;66763;47.856;17.462;2024-02-04T13:25:22;11.70;49.90
33943;DHT22;66763;47.856;17.462;2024-02-04T13:27:48;11.70;50.50
33943;DHT22;66763;47.856;17.462;2024-02-04T13:30:14;11.70;50.20
33943;DHT22;66763;47.856;17.462;2024-02-04T13:32:39;11.70;50.40
33943;DHT22;66763;47.856;17.462;2024-02-04T13:35:06;11.70;50.00
33943;DHT22;66763;47.856;17.462;2024-02-04T13:37:34;11.70;49.80
33943;DHT22;66763;47.856;17.462;2024-02-04T13:40:01;11.70;50.20
33943;DHT22;66763;47.856;17.462;2024-02-04T13:42:26;11.70;49.90
33943;DHT22;66763;47.856;17.462;2024-02-04T13:44:52;11.70;50.50
33943;DHT22;66763;47.856;17.462;2024-02-04T13:47:17;11.70;49.80
33943;DHT22;66763;47.856;17.462;2024-02-04T13:49:43;11.70;49.80
33943;DHT22;66763;47.856;17.462;2024-02-04T13:52:08;11.70;49.80
33943;DHT22;66763;47.856;17.462;2024-02-04T13:54:33;11.70;50.10
33943;DHT22;66763;47.856;17.462;2024-02-04T13:56:59;11.70;49.80
33943;DHT22;66763;47.856;17.462;2024-02-04T13:59:24;11.70;50.60
33943;DHT22;66763;47.856;17.462;2024-02-04T14:01:50;11.70;49.80
33943;DHT22;66763;47.856;17.462;2024-02-04T14:04:16;11.70;50.30
33943;DHT22;66763;47.856;17.462;2024-02-04T14:06:41;11.70;50.20
33943;DHT22;66763;47.856;17.462;2024-02-04T14:09:07;11.70;49.90
33943;DHT22;66763;47.856;17.462;2024-02-04T14:11:32;11.70;50.30
33943;DHT22;66763;47.856;17.462;2024-02-04T14:13:58;11.70;49.80
33943;DHT22;66763;47.856;17.462;2024-02-04T14:16:23;11.70;50.10
33943;DHT22;66763;47.856;17.462;2024-02-04T14:18:49;11.70;50.60
33943;DHT22;66763;47.856;17.462;2024-02-04T14:21:14;11.70;50.00
33943;DHT22;66763;47.856;17.462;2024-02-04T14:23:40;11.70;49.90
33943;DHT22;66763;47.856;17.462;2024-02-04T14:26:05;11.70;50.10
33943;DHT22;66763;47.856;17.462;2024-02-04T14:28:33;11.70;50.00
33943;DHT22;66763;47.856;17.462;2024-02-04T14:31:06;11.70;49.80
33943;DHT22;66763;47.856;17.462;2024-02-04T14:33:32;11.70;49.80
33943;DHT22;66763;47.856;17.462;2024-02-04T14:35:57;11.70;49.90
33943;DHT22;66763;47.856;17.462;2024-02-04T14:38:23;11.70;50.00
33943;DHT22;66763;47.856;17.462;2024-02-04T14:40:48;11.70;49.80
33943;DHT22;66763;47.856;17.462;2024-02-04T14:43:14;11.70;50.20
33943;DHT22;66763;47.856;17.462;2024-02-04T14:45:40;11.70;49.80
33943;DHT22;66763;47.856;17.462;2024-02-04T14:48:06;11.70;49.90
33943;DHT22;66763;47.856;17.462;2024-02-04T14:50:31;11.70;49.80
33943;DHT22;66763;47.856;17.462;2024-02-04T14:52:57;11.70;50.40
33943;DHT22;66763;47.856;17.462;2024-02-04T14:55:22;11.70;49.90
33943;DHT22;66763;47.856;17.462;2024-02-04T14:57:47;11.70;49.80
33943;DHT22;66763;47.856;17.462;2024-02-04T15:00:13;11.70;50.30
33943;DHT22;66763;47.856;17.462;2024-02-04T15:02:39;11.70;49.80
33943;DHT22;66763;47.856;17.462;2024-02-04T15:05:05;11.70;49.80
33943;DHT22;66763;47.856;17.462;2024-02-04T15:07:32;11.70;49.80
33943;DHT22;66763;47.856;17.462;2024-02-04T15:09:58;11.70;49.80
33943;DHT22;66763;47.856;17.462;2024-02-04T15:12:24;11.70;49.80
33943;DHT22;66763;47.856;17.462;2024-02-04T15:14:49;11.70;49.80
33943;DHT22;66763;47.856;17.462;2024-02-04T15:17:15;11.70;49.80